»·PEaware :: N229MR KSBA-KBUR

N229MR :: KSBA-KBUR

FLIGHT INFORMATION

Flight Status: Arrived
Operator: Privately registered:
United States
More flights under this callsign
Pilot: Oystein R. (30115)
Aircraft: Unknown
(DA62)
More flights by this aircraft type
Origin: KSBA Santa Barbara Mun
United States
Destination: KBUR Bob Hope-Burbank
United States
More flights between these airports :: More routes between these airports
Route:
File this flight plan on PilotEdge
Remarks:
Altitude:
(Current/Filed)
5,500ft
Speed:
(Current/Filed)
160kts
Departed: 30-Jul-20 12:29 PM
Arrived: 30-Jul-20 01:00 PM
Distance/Time
Traveled:
75nm/0:31
Distance/Time
To Go:
Arrived

Flight Plot

Page will automatically refresh every two minutes.


Map Options




Map Legend


Flown Route
Filed Route
Departure Airport
Arrival Airport
Navaid (VOR, NDB)
Fix

Horizontal Profiles

Position Reports

Time Latitude Longitude Heading Altitude Ground
Speed
30-Jul-20 11:30 34.432472 -119.835472 71 17ft 0kts
30-Jul-20 11:31 34.432472 -119.835472 71 17ft 0kts
30-Jul-20 11:32 34.432472 -119.835472 71 17ft 0kts
30-Jul-20 11:33 34.432472 -119.835472 71 17ft 0kts
30-Jul-20 11:34 34.432472 -119.835472 71 17ft 0kts
30-Jul-20 11:34 34.432472 -119.835472 71 17ft 0kts
30-Jul-20 11:36 34.432472 -119.835472 71 17ft 0kts
30-Jul-20 11:36 34.432472 -119.835472 71 17ft 0kts
30-Jul-20 11:38 34.432472 -119.835472 71 17ft 0kts
30-Jul-20 11:39 34.432472 -119.835472 71 17ft 0kts
30-Jul-20 11:39 34.432472 -119.835472 71 17ft 0kts
30-Jul-20 11:40 34.432472 -119.835472 71 17ft 0kts
30-Jul-20 11:42 34.432472 -119.835472 71 17ft 0kts
30-Jul-20 11:42 34.432472 -119.835472 71 17ft 0kts
30-Jul-20 11:43 34.432472 -119.835472 71 17ft 0kts
30-Jul-20 11:44 34.432472 -119.835472 71 17ft 0kts
30-Jul-20 11:45 34.432472 -119.835472 71 17ft 0kts
30-Jul-20 11:46 34.432472 -119.835472 71 17ft 0kts
30-Jul-20 11:47 34.432472 -119.835472 71 17ft 0kts
30-Jul-20 11:48 34.432472 -119.835472 71 17ft 0kts
30-Jul-20 11:49 34.432472 -119.835472 71 17ft 0kts
30-Jul-20 11:50 34.432472 -119.835472 71 17ft 0kts
30-Jul-20 11:51 34.432472 -119.835472 71 17ft 0kts
30-Jul-20 11:52 34.432472 -119.835472 71 17ft 0kts
30-Jul-20 11:53 34.432472 -119.835472 71 17ft 0kts
30-Jul-20 11:54 34.432472 -119.835472 71 17ft 0kts
30-Jul-20 11:56 34.432472 -119.835472 71 17ft 0kts
30-Jul-20 11:56 34.432472 -119.835472 71 17ft 0kts
30-Jul-20 11:57 34.432472 -119.835472 71 17ft 0kts
30-Jul-20 11:58 34.432472 -119.835472 71 17ft 0kts
30-Jul-20 11:59 34.432472 -119.835472 71 17ft 0kts
30-Jul-20 12:00 34.432472 -119.835472 71 17ft 0kts
30-Jul-20 12:01 34.432472 -119.835472 71 17ft 0kts
30-Jul-20 12:02 34.432472 -119.835472 71 17ft 0kts
30-Jul-20 12:03 34.432472 -119.835472 71 17ft 0kts
30-Jul-20 12:04 34.432472 -119.835472 71 17ft 0kts
30-Jul-20 12:05 34.432472 -119.835472 71 17ft 0kts
30-Jul-20 12:06 34.432472 -119.835472 71 17ft 0kts
30-Jul-20 12:07 34.432472 -119.835472 71 17ft 0kts
30-Jul-20 12:08 34.432472 -119.835472 71 17ft 0kts
30-Jul-20 12:09 34.432472 -119.835472 71 17ft 0kts
30-Jul-20 12:10 34.432472 -119.835472 71 17ft 0kts
30-Jul-20 12:11 34.432472 -119.835472 71 17ft 0kts
30-Jul-20 12:12 34.432472 -119.835472 71 17ft 0kts
30-Jul-20 12:13 34.432472 -119.835472 71 17ft 0kts
30-Jul-20 12:14 34.432472 -119.835472 71 17ft 0kts
30-Jul-20 12:15 34.432472 -119.835472 71 17ft 0kts
30-Jul-20 12:16 34.432472 -119.835472 71 17ft 0kts
30-Jul-20 12:17 34.432472 -119.835472 71 17ft 0kts
30-Jul-20 12:18 34.432549 -119.835530 219 17ft 3kts
30-Jul-20 12:19 34.432514 -119.835557 210 17ft 0kts
30-Jul-20 12:20 34.432513 -119.835557 210 17ft 0kts
30-Jul-20 12:21 34.431036 -119.838717 248 17ft 16kts
30-Jul-20 12:22 34.430701 -119.839761 247 17ft 0kts
30-Jul-20 12:23 34.430701 -119.839761 247 17ft 0kts
30-Jul-20 12:24 34.430701 -119.839761 247 17ft 0kts
30-Jul-20 12:25 34.430701 -119.839761 247 17ft 0kts
30-Jul-20 12:26 34.430701 -119.839761 247 17ft 0kts
30-Jul-20 12:27 34.429478 -119.839965 163 17ft 40kts
30-Jul-20 12:28 34.405886 -119.831776 162 716ft 107kts
30-Jul-20 12:29 34.374804 -119.820068 162 1508ft 133kts
30-Jul-20 12:30 34.349039 -119.790923 91 1892ft 134kts
30-Jul-20 12:31 34.351727 -119.748165 88 2783ft 122kts
30-Jul-20 12:32 34.355010 -119.708800 88 3764ft 115kts
30-Jul-20 12:33 34.358706 -119.670932 88 4753ft 112kts
30-Jul-20 12:34 34.362809 -119.632337 87 5514ft 132kts
30-Jul-20 12:35 34.367349 -119.581635 87 5511ft 162kts
30-Jul-20 12:36 34.372000 -119.526134 87 5509ft 167kts
30-Jul-20 12:37 34.376607 -119.470259 87 5508ft 166kts
30-Jul-20 12:38 34.380939 -119.414499 87 5509ft 167kts
30-Jul-20 12:39 34.384808 -119.357822 87 5510ft 170kts
30-Jul-20 12:40 34.387992 -119.299923 88 5508ft 172kts
30-Jul-20 12:41 34.390275 -119.241862 88 5524ft 173kts
30-Jul-20 12:42 34.391914 -119.183542 88 5520ft 173kts
30-Jul-20 12:43 34.391995 -119.125210 98 5515ft 173kts
30-Jul-20 12:44 34.381934 -119.068289 102 5511ft 172kts
30-Jul-20 12:45 34.370622 -119.012191 103 5508ft 171kts
30-Jul-20 12:46 34.359114 -118.956050 103 5518ft 171kts
30-Jul-20 12:47 34.347545 -118.900119 103 5518ft 171kts
30-Jul-20 12:48 34.335908 -118.843984 103 5518ft 172kts
30-Jul-20 12:49 34.324226 -118.787726 105 5517ft 172kts
30-Jul-20 12:50 34.306583 -118.733898 112 5516ft 172kts
30-Jul-20 12:51 34.288537 -118.681108 111 5513ft 166kts
30-Jul-20 12:52 34.270938 -118.629707 111 5341ft 168kts
30-Jul-20 12:53 34.253012 -118.577425 111 4630ft 167kts
30-Jul-20 12:54 34.235526 -118.526571 110 3958ft 154kts
30-Jul-20 12:55 34.220218 -118.481886 111 3250ft 134kts
30-Jul-20 12:56 34.207845 -118.446404 111 2629ft 96kts
30-Jul-20 12:57 34.200250 -118.417568 107 1890ft 89kts
30-Jul-20 12:58 34.198327 -118.388076 94 1096ft 87kts
30-Jul-20 12:59 34.197894 -118.360708 89 780ft 36kts
30-Jul-20 13:00 34.198628 -118.360252 2 780ft 0kts
30-Jul-20 13:01 34.199651 -118.359434 84 780ft 0kts
30-Jul-20 13:02 34.199651 -118.359434 84 780ft 0kts
30-Jul-20 13:03 34.199651 -118.359434 84 780ft 0kts
30-Jul-20 13:04 34.199651 -118.359434 84 780ft 0kts
30-Jul-20 13:05 34.199651 -118.359434 84 780ft 0kts
30-Jul-20 13:06 34.199651 -118.359434 84 780ft 0kts
30-Jul-20 13:07 34.199651 -118.359434 84 780ft 0kts
30-Jul-20 13:08 34.199651 -118.359434 84 780ft 0kts
30-Jul-20 13:09 34.199651 -118.359434 84 780ft 0kts
30-Jul-20 13:10 34.199651 -118.359434 84 780ft 0kts
30-Jul-20 13:11 34.199651 -118.359434 84 780ft 0kts
30-Jul-20 13:13 34.199651 -118.359434 84 780ft 0kts
30-Jul-20 13:14 34.199651 -118.359434 84 780ft 0kts

Navigation Log

Ident Type
Flight plan parsing failed, navigation log unavailable